createdAt,value
2023-05-10T00:01:41.184Z,88.71
2023-05-10T00:06:42.835Z,88.79
2023-05-10T00:11:44.646Z,88.93
2023-05-10T00:16:47.686Z,88.94
2023-05-10T00:21:49.434Z,88.54
2023-05-10T00:26:50.982Z,89.39
2023-05-10T00:31:53.999Z,89.06
2023-05-10T00:36:55.825Z,89.34
2023-05-10T00:41:57.411Z,89.46
2023-05-10T00:47:00.929Z,89.46
2023-05-10T00:52:02.697Z,89.38
2023-05-10T00:57:04.311Z,89.36
2023-05-10T01:02:07.642Z,89.36
2023-05-10T01:07:09.362Z,89.17
2023-05-10T01:12:11.036Z,89.65
2023-05-10T01:17:14.343Z,89.59
2023-05-10T01:22:46.320Z,89.42
2023-05-10T01:28:15.328Z,89.68
2023-05-10T01:33:20.083Z,89.36
2023-05-10T01:38:30.671Z,89.49
2023-05-10T01:43:36.194Z,89.92
2023-05-10T01:48:42.488Z,89.57
2023-05-10T01:53:45.566Z,89.38
2023-05-10T01:58:49.327Z,89.45
2023-05-10T02:03:53.006Z,89.20
2023-05-10T02:08:54.973Z,89.61
2023-05-10T02:13:57.293Z,89.40
2023-05-10T02:19:04.636Z,89.15
2023-05-10T02:24:06.843Z,89.25
2023-05-10T02:29:09.042Z,89.15
2023-05-10T02:34:12.413Z,89.60
2023-05-10T02:39:14.441Z,89.53
2023-05-10T02:44:18.732Z,89.42
2023-05-10T02:49:23.348Z,89.16
2023-05-10T02:54:28.141Z,89.05
2023-05-10T02:59:29.784Z,89.30
2023-05-10T03:04:32.796Z,89.60
2023-05-10T03:09:34.637Z,89.38
2023-05-10T03:14:45.906Z,88.80
2023-05-10T03:19:54.384Z,88.72
2023-05-10T03:24:57.580Z,88.90
2023-05-10T03:30:02.783Z,88.67
2023-05-10T03:35:09.264Z,89.13
2023-05-10T03:40:11.633Z,89.11
2023-05-10T03:45:16.175Z,89.31
2023-05-10T03:50:19.594Z,89.57
2023-05-10T03:55:21.533Z,89.03
2023-05-10T04:00:23.385Z,88.80
2023-05-10T04:05:29.972Z,89.27
2023-05-10T04:10:32.018Z,89.15
2023-05-10T04:15:33.698Z,88.90
2023-05-10T04:20:36.740Z,88.78
2023-05-10T04:25:38.365Z,88.63
2023-05-10T04:30:40.645Z,89.06
2023-05-10T04:35:43.586Z,87.70
2023-05-10T04:40:45.210Z,87.91
2023-05-10T04:45:46.913Z,86.55
2023-05-10T04:50:49.873Z,86.93
2023-05-10T04:55:51.492Z,86.83
2023-05-10T05:00:53.196Z,86.27
2023-05-10T05:05:56.104Z,86.14
2023-05-10T05:10:57.794Z,87.22
2023-05-10T05:16:01.511Z,86.95
2023-05-10T05:21:04.526Z,87.23
2023-05-10T05:26:06.203Z,87.36
2023-05-10T05:31:08.052Z,87.31
2023-05-10T05:36:11.069Z,87.37
2023-05-10T05:41:12.809Z,87.37
2023-05-10T05:46:14.437Z,86.74
2023-05-10T05:51:17.387Z,86.74
2023-05-10T05:56:19.042Z,86.77
2023-05-10T06:01:21.094Z,85.58
2023-05-10T06:06:24.138Z,85.56
2023-05-10T06:11:26.588Z,84.94
2023-05-10T06:16:28.220Z,85.54
2023-05-10T06:21:31.136Z,84.83
2023-05-10T06:26:32.832Z,85.78
2023-05-10T06:31:34.489Z,85.17
2023-05-10T06:36:37.410Z,83.58
2023-05-10T06:41:39.240Z,80.02
2023-05-10T06:46:40.825Z,78.65
2023-05-10T06:51:43.911Z,77.90
2023-05-10T06:56:45.488Z,80.35
2023-05-10T07:01:47.117Z,77.57
2023-05-10T07:06:50.084Z,75.50
2023-05-10T07:11:51.780Z,80.90
2023-05-10T07:16:53.448Z,80.51
2023-05-10T07:21:56.400Z,79.31
2023-05-10T07:26:58.014Z,79.11
2023-05-10T07:32:00.006Z,78.80
2023-05-10T07:37:03.050Z,78.91
2023-05-10T07:42:04.834Z,77.40
2023-05-10T07:47:06.514Z,74.15
2023-05-10T07:52:09.548Z,73.61
2023-05-10T07:57:11.167Z,77.75
2023-05-10T08:02:12.830Z,76.30
2023-05-10T08:07:15.878Z,72.97
2023-05-10T08:12:17.518Z,73.89
2023-05-10T08:17:19.948Z,72.27
2023-05-10T08:22:23.449Z,71.47
2023-05-10T08:27:24.984Z,71.92
2023-05-10T08:32:26.634Z,70.50
2023-05-10T08:37:31.871Z,71.96
2023-05-10T08:42:35.686Z,72.46
2023-05-10T08:47:38.151Z,70.86
2023-05-10T08:52:41.399Z,68.20
2023-05-10T08:57:43.129Z,67.95
2023-05-10T09:02:45.437Z,64.63
2023-05-10T09:07:51.224Z,66.86
2023-05-10T09:12:53.299Z,62.31
2023-05-10T09:17:55.584Z,67.44
2023-05-10T09:22:58.652Z,71.22
2023-05-10T09:28:00.441Z,73.03
2023-05-10T09:33:02.489Z,73.33
2023-05-10T09:38:05.867Z,72.18
2023-05-10T09:43:08.252Z,72.02
2023-05-10T09:48:09.901Z,71.91
2023-05-10T09:53:15.585Z,72.62
2023-05-10T09:58:17.314Z,71.79
2023-05-10T10:03:20.929Z,73.12
2023-05-10T10:08:24.060Z,73.67
2023-05-10T10:13:25.721Z,73.96
2023-05-10T10:18:27.412Z,73.35
2023-05-10T10:23:30.408Z,73.23
2023-05-10T10:28:37.130Z,73.61
2023-05-10T10:33:45.708Z,72.13
2023-05-10T10:39:02.729Z,64.64
2023-05-10T10:44:36.578Z,62.51
2023-05-10T10:49:49.714Z,64.75
2023-05-10T10:54:53.354Z,64.50
2023-05-10T11:00:19.776Z,61.93
2023-05-10T11:05:39.367Z,63.10
2023-05-10T11:10:51.261Z,60.09
2023-05-10T11:15:52.960Z,60.29
2023-05-10T11:20:58.069Z,61.35
2023-05-10T11:26:01.525Z,60.17
2023-05-10T11:31:03.158Z,60.67
2023-05-10T11:36:05.191Z,59.96
2023-05-10T11:41:09.234Z,56.10
2023-05-10T11:46:13.346Z,55.10
2023-05-10T11:51:15.022Z,55.32
2023-05-10T11:56:18.023Z,53.14
2023-05-10T12:01:19.695Z,56.61
2023-05-10T12:06:22.262Z,53.14
2023-05-10T12:11:27.794Z,50.50
2023-05-10T12:16:30.393Z,53.32
2023-05-10T12:21:32.181Z,50.85
2023-05-10T12:26:36.177Z,49.60
2023-05-10T12:31:50.462Z,48.98
2023-05-10T12:36:52.946Z,51.57
2023-05-10T12:41:55.889Z,53.12
2023-05-10T12:46:57.612Z,52.88
2023-05-10T12:51:59.271Z,52.20
2023-05-10T12:57:02.296Z,50.79
2023-05-10T13:02:04.024Z,50.71
2023-05-10T13:07:05.851Z,50.31
2023-05-10T13:12:10.104Z,48.98
2023-05-10T13:17:12.083Z,48.53
2023-05-10T13:22:13.751Z,48.44
2023-05-10T13:27:16.703Z,49.31
2023-05-10T13:32:18.347Z,48.12
2023-05-10T13:37:19.961Z,49.53
2023-05-10T13:42:23.290Z,48.19
2023-05-10T13:47:24.983Z,47.63
2023-05-10T13:52:27.157Z,46.32
2023-05-10T13:57:30.161Z,46.73
2023-05-10T14:02:31.928Z,46.47
2023-05-10T14:07:33.720Z,46.49
2023-05-10T14:12:36.732Z,46.23
2023-05-10T14:17:38.433Z,47.28
2023-05-10T14:22:40.154Z,47.59
2023-05-10T14:27:43.225Z,47.62
2023-05-10T14:32:44.984Z,46.64
2023-05-10T14:37:46.932Z,46.80
2023-05-10T14:42:50.717Z,47.22
2023-05-10T14:47:52.521Z,45.62
2023-05-10T14:52:54.237Z,46.23
2023-05-10T14:57:57.175Z,44.69
2023-05-10T15:02:58.895Z,46.30
2023-05-10T15:08:01.209Z,45.11
2023-05-10T15:13:04.366Z,46.18
2023-05-10T15:18:06.063Z,46.20
2023-05-10T15:23:07.898Z,45.58
2023-05-10T15:28:10.873Z,45.37
2023-05-10T15:33:12.490Z,44.74
2023-05-10T15:38:14.076Z,45.81
2023-05-10T15:43:17.122Z,46.52
2023-05-10T15:48:19.169Z,45.44
2023-05-10T15:53:20.834Z,45.94
2023-05-10T15:58:23.957Z,46.24
2023-05-10T16:03:25.661Z,46.22
2023-05-10T16:08:27.886Z,45.82
2023-05-10T16:13:30.924Z,46.48
2023-05-10T16:18:32.713Z,47.10
2023-05-10T16:23:34.492Z,47.59
2023-05-10T16:28:37.504Z,47.39
2023-05-10T16:33:39.233Z,46.55
2023-05-10T16:38:40.859Z,45.92
2023-05-10T16:43:43.870Z,45.86
2023-05-10T16:48:45.493Z,45.14
2023-05-10T16:53:47.148Z,44.65
2023-05-10T16:58:50.154Z,45.71
2023-05-10T17:03:51.908Z,46.89
2023-05-10T17:08:53.631Z,46.70
2023-05-10T17:13:56.670Z,45.67
2023-05-10T17:18:58.429Z,46.52
2023-05-10T17:24:00.189Z,46.84
2023-05-10T17:29:03.563Z,46.84
2023-05-10T17:34:05.846Z,46.83
2023-05-10T17:39:07.657Z,46.42
2023-05-10T17:44:10.673Z,46.63
2023-05-10T17:49:12.345Z,46.40
2023-05-10T17:54:14.005Z,45.96
2023-05-10T17:59:17.316Z,46.19
2023-05-10T18:04:18.962Z,46.32
2023-05-10T18:09:20.678Z,46.27
2023-05-10T18:14:39.117Z,46.51
2023-05-10T18:19:42.564Z,46.58
2023-05-10T18:24:44.266Z,46.94
2023-05-10T18:29:47.294Z,47.16
2023-05-10T18:34:48.990Z,47.25
2023-05-10T18:39:50.801Z,47.57
2023-05-10T18:44:54.693Z,48.30
2023-05-10T18:49:56.407Z,49.31
2023-05-10T18:54:58.107Z,49.30
2023-05-10T19:00:01.102Z,49.31
2023-05-10T19:05:02.995Z,49.34
2023-05-10T19:10:07.447Z,49.66
2023-05-10T19:15:11.318Z,50.36
2023-05-10T19:20:13.211Z,51.43
2023-05-10T19:25:15.531Z,52.40
2023-05-10T19:30:20.241Z,54.11
2023-05-10T19:35:22.007Z,54.89
2023-05-10T19:40:27.361Z,56.56
2023-05-10T19:45:30.579Z,56.58
2023-05-10T19:50:32.431Z,56.89
2023-05-10T19:55:34.176Z,57.14
2023-05-10T20:00:37.388Z,58.08
2023-05-10T20:05:39.045Z,58.37
2023-05-10T20:10:40.695Z,57.84
2023-05-10T20:15:43.870Z,57.53
2023-05-10T20:20:45.655Z,57.11
2023-05-10T20:25:47.476Z,57.20
2023-05-10T20:30:53.181Z,58.35
2023-05-10T20:35:55.025Z,57.89
2023-05-10T20:40:56.646Z,58.92
2023-05-10T20:45:59.648Z,60.61
2023-05-10T20:51:01.604Z,60.82
2023-05-10T20:56:03.631Z,61.71
2023-05-10T21:01:06.798Z,62.44
2023-05-10T21:06:08.475Z,62.76
2023-05-10T21:11:10.127Z,63.13
2023-05-10T21:16:13.142Z,63.40
2023-05-10T21:21:14.820Z,63.55
2023-05-10T21:26:16.776Z,63.82
2023-05-10T21:31:19.789Z,64.53
2023-05-10T21:36:21.525Z,65.15
2023-05-10T21:41:23.756Z,66.63
2023-05-10T21:46:26.870Z,65.90
2023-05-10T21:51:28.708Z,65.76
2023-05-10T21:56:30.296Z,66.47
2023-05-10T22:01:33.830Z,66.05
2023-05-10T22:06:35.708Z,65.83
2023-05-10T22:11:37.325Z,65.70
2023-05-10T22:16:40.365Z,66.71
2023-05-10T22:21:42.052Z,66.65
2023-05-10T22:26:43.723Z,66.83
2023-05-10T22:31:46.637Z,67.72
2023-05-10T22:36:48.296Z,67.43
2023-05-10T22:41:49.970Z,68.56
2023-05-10T22:46:53.077Z,67.78
2023-05-10T22:51:54.675Z,67.95
2023-05-10T22:56:56.510Z,67.53
2023-05-10T23:01:59.664Z,67.63
2023-05-10T23:07:01.347Z,68.11
2023-05-10T23:12:03.129Z,68.26
2023-05-10T23:17:06.159Z,68.63
2023-05-10T23:22:08.308Z,68.97
2023-05-10T23:27:09.941Z,68.71
2023-05-10T23:32:13.012Z,69.05
2023-05-10T23:37:14.728Z,69.56
2023-05-10T23:42:16.372Z,69.67
2023-05-10T23:47:19.495Z,69.09
2023-05-10T23:52:21.094Z,69.04
2023-05-10T23:57:22.798Z,68.87
